createdAt,value
2023-03-29T00:00:02.244Z,70.10
2023-03-29T00:05:02.950Z,70.70
2023-03-29T00:10:03.671Z,70.59
2023-03-29T00:15:04.367Z,70.39
2023-03-29T00:20:05.065Z,70.49
2023-03-29T00:25:05.802Z,70.39
2023-03-29T00:30:06.473Z,70.70
2023-03-29T00:35:07.254Z,70.59
2023-03-29T00:40:07.968Z,70.07
2023-03-29T00:45:08.649Z,70.59
2023-03-29T00:50:09.354Z,70.59
2023-03-29T00:55:17.120Z,71.01
2023-03-29T01:00:10.797Z,70.39
2023-03-29T01:05:11.508Z,70.70
2023-03-29T01:10:12.223Z,70.59
2023-03-29T01:15:12.964Z,71.63
2023-03-29T01:20:13.675Z,70.28
2023-03-29T01:25:14.345Z,70.80
2023-03-29T01:30:15.076Z,70.80
2023-03-29T01:35:15.763Z,70.07
2023-03-29T01:40:16.462Z,70.70
2023-03-29T01:45:17.228Z,70.80
2023-03-29T01:50:17.935Z,70.83
2023-03-29T01:55:18.620Z,70.39
2023-03-29T02:00:19.350Z,70.42
2023-03-29T02:05:20.031Z,69.87
2023-03-29T02:10:20.756Z,69.45
2023-03-29T02:15:21.436Z,68.73
2023-03-29T02:20:22.197Z,68.62
2023-03-29T02:25:22.890Z,68.10
2023-03-29T02:30:23.596Z,68.73
2023-03-29T02:35:24.289Z,67.90
2023-03-29T02:40:25.029Z,67.58
2023-03-29T02:45:25.701Z,67.93
2023-03-29T02:50:26.406Z,68.41
2023-03-29T02:55:27.117Z,68.65
2023-03-29T03:00:27.843Z,69.27
2023-03-29T03:05:28.530Z,69.48
2023-03-29T03:10:29.230Z,69.38
2023-03-29T03:15:29.935Z,69.79
2023-03-29T03:20:30.666Z,68.79
2023-03-29T03:25:31.352Z,69.73
2023-03-29T03:30:32.049Z,69.93
2023-03-29T03:35:32.810Z,70.04
2023-03-29T03:40:33.497Z,69.96
2023-03-29T03:45:34.266Z,69.86
2023-03-29T03:50:34.997Z,70.48
2023-03-29T03:55:35.672Z,70.17
2023-03-29T04:00:36.394Z,70.28
2023-03-29T04:05:37.097Z,70.38
2023-03-29T04:10:37.813Z,70.90
2023-03-29T04:15:38.684Z,70.17
2023-03-29T04:20:39.428Z,71.31
2023-03-29T04:25:40.139Z,71.00
2023-03-29T04:30:40.783Z,70.93
2023-03-29T04:35:41.442Z,71.14
2023-03-29T04:40:42.143Z,70.51
2023-03-29T04:45:42.814Z,70.41
2023-03-29T04:50:43.470Z,70.41
2023-03-29T04:55:44.132Z,70.28
2023-03-29T05:00:44.803Z,70.31
2023-03-29T05:05:45.468Z,70.93
2023-03-29T05:10:46.120Z,69.79
2023-03-29T05:15:46.772Z,70.90
2023-03-29T05:20:47.436Z,69.96
2023-03-29T05:25:48.115Z,69.65
2023-03-29T05:30:48.742Z,70.28
2023-03-29T05:35:49.437Z,69.65
2023-03-29T05:40:50.072Z,68.93
2023-03-29T05:45:50.727Z,68.59
2023-03-29T05:50:51.382Z,68.38
2023-03-29T05:55:52.140Z,67.96
2023-03-29T06:00:52.818Z,67.51
2023-03-29T06:05:53.477Z,67.69
2023-03-29T06:10:54.117Z,66.55
2023-03-29T06:15:54.771Z,66.86
2023-03-29T06:20:55.441Z,66.52
2023-03-29T06:25:56.071Z,66.00
2023-03-29T06:30:56.800Z,66.18
2023-03-29T06:35:57.674Z,66.08
2023-03-29T06:40:58.323Z,65.77
2023-03-29T06:45:58.980Z,64.73
2023-03-29T06:50:59.694Z,65.35
2023-03-29T06:56:00.373Z,65.11
2023-03-29T07:01:08.008Z,65.01
2023-03-29T07:06:01.669Z,64.46
2023-03-29T07:11:02.511Z,64.36
2023-03-29T07:16:02.988Z,64.23
2023-03-29T07:21:03.918Z,63.81
2023-03-29T07:26:04.204Z,63.57
2023-03-29T07:31:04.910Z,63.37
2023-03-29T07:36:05.654Z,62.51
2023-03-29T07:41:06.264Z,62.27
2023-03-29T07:46:06.998Z,60.49
2023-03-29T07:51:07.642Z,60.47
2023-03-29T07:56:08.350Z,60.26
2023-03-29T08:01:10.462Z,59.41
2023-03-29T08:06:09.681Z,58.17
2023-03-29T08:11:10.342Z,58.58
2023-03-29T08:16:11.040Z,59.69
2023-03-29T08:21:11.928Z,58.97
2023-03-29T08:26:12.606Z,59.79
2023-03-29T08:31:13.336Z,58.73
2023-03-29T08:36:14.214Z,58.50
2023-03-29T08:41:15.568Z,57.54
2023-03-29T08:46:15.792Z,57.39
2023-03-29T08:51:16.572Z,56.98
2023-03-29T08:56:17.601Z,58.68
2023-03-29T09:01:17.980Z,57.36
2023-03-29T09:06:18.704Z,58.54
2023-03-29T09:11:19.317Z,56.13
2023-03-29T09:16:20.254Z,55.90
2023-03-29T09:21:21.015Z,55.59
2023-03-29T09:26:21.721Z,56.62
2023-03-29T09:31:22.646Z,56.71
2023-03-29T09:36:22.815Z,56.51
2023-03-29T09:41:23.514Z,57.98
2023-03-29T09:46:24.204Z,55.82
2023-03-29T09:51:24.944Z,55.94
2023-03-29T09:56:25.616Z,55.85
2023-03-29T10:01:26.508Z,56.46
2023-03-29T10:06:27.286Z,56.02
2023-03-29T10:11:28.024Z,55.69
2023-03-29T10:16:28.847Z,55.26
2023-03-29T10:21:29.735Z,54.74
2023-03-29T10:26:30.636Z,54.41
2023-03-29T10:31:31.421Z,54.16
2023-03-29T10:36:32.259Z,52.34
2023-03-29T10:41:33.286Z,51.84
2023-03-29T10:46:33.667Z,53.11
2023-03-29T10:51:34.505Z,54.36
2023-03-29T10:56:35.182Z,54.67
2023-03-29T11:01:36.063Z,55.54
2023-03-29T11:06:36.831Z,56.05
2023-03-29T11:11:37.597Z,56.69
2023-03-29T11:16:38.300Z,56.89
2023-03-29T11:21:39.143Z,55.84
2023-03-29T11:26:39.940Z,55.38
2023-03-29T11:31:40.731Z,55.49
2023-03-29T11:36:41.504Z,54.77
2023-03-29T11:41:42.310Z,54.54
2023-03-29T11:46:43.051Z,53.49
2023-03-29T11:51:43.854Z,54.23
2023-03-29T11:56:44.636Z,54.31
2023-03-29T12:01:45.310Z,54.64
2023-03-29T12:06:45.992Z,54.33
2023-03-29T12:11:46.652Z,54.64
2023-03-29T12:16:47.377Z,53.27
2023-03-29T12:21:48.783Z,52.25
2023-03-29T12:26:49.162Z,51.91
2023-03-29T12:31:49.967Z,51.71
2023-03-29T12:36:50.822Z,51.91
2023-03-29T12:41:52.448Z,51.73
2023-03-29T12:46:52.711Z,52.78
2023-03-29T12:51:52.957Z,53.08
2023-03-29T12:56:53.672Z,51.65
2023-03-29T13:02:01.333Z,52.17
2023-03-29T13:06:54.915Z,51.43
2023-03-29T13:11:55.596Z,51.93
2023-03-29T13:16:58.249Z,51.84
2023-03-29T13:21:56.842Z,52.25
2023-03-29T13:26:57.490Z,52.78
2023-03-29T13:31:58.179Z,53.72
2023-03-29T13:36:58.804Z,54.03
2023-03-29T13:41:59.463Z,54.46
2023-03-29T13:47:00.193Z,54.85
2023-03-29T13:52:00.899Z,54.77
2023-03-29T13:57:01.612Z,54.57
2023-03-29T14:02:02.326Z,54.64
2023-03-29T14:07:02.995Z,54.16
2023-03-29T14:12:03.641Z,54.77
2023-03-29T14:17:04.325Z,55.28
2023-03-29T14:22:04.942Z,55.08
2023-03-29T14:27:05.641Z,55.08
2023-03-29T14:32:06.340Z,56.20
2023-03-29T14:37:07.044Z,56.23
2023-03-29T14:42:07.658Z,56.33
2023-03-29T14:47:08.336Z,56.74
2023-03-29T14:52:08.971Z,56.63
2023-03-29T14:57:09.709Z,57.35
2023-03-29T15:02:10.481Z,57.25
2023-03-29T15:07:11.097Z,57.79
2023-03-29T15:12:11.737Z,58.70
2023-03-29T15:17:12.422Z,58.94
2023-03-29T15:22:13.095Z,60.17
2023-03-29T15:27:13.752Z,61.52
2023-03-29T15:32:14.484Z,62.11
2023-03-29T15:37:15.139Z,63.03
2023-03-29T15:42:15.779Z,63.10
2023-03-29T15:47:16.431Z,63.10
2023-03-29T15:52:17.112Z,63.41
2023-03-29T15:57:17.804Z,63.41
2023-03-29T16:02:18.556Z,63.82
2023-03-29T16:07:19.256Z,63.65
2023-03-29T16:12:19.909Z,63.92
2023-03-29T16:17:20.536Z,63.82
2023-03-29T16:22:21.199Z,63.82
2023-03-29T16:27:21.860Z,63.31
2023-03-29T16:32:22.581Z,63.62
2023-03-29T16:37:23.195Z,63.51
2023-03-29T16:42:23.844Z,63.41
2023-03-29T16:47:24.571Z,63.85
2023-03-29T16:52:25.221Z,63.85
2023-03-29T16:57:25.960Z,64.26
2023-03-29T17:02:26.674Z,64.57
2023-03-29T17:07:27.343Z,64.47
2023-03-29T17:12:27.976Z,64.67
2023-03-29T17:17:28.687Z,64.98
2023-03-29T17:22:29.366Z,65.08
2023-03-29T17:27:29.965Z,64.98
2023-03-29T17:32:30.658Z,65.39
2023-03-29T17:37:31.305Z,66.00
2023-03-29T17:42:31.964Z,66.31
2023-03-29T17:47:32.597Z,66.41
2023-03-29T17:52:33.280Z,66.92
2023-03-29T17:57:33.949Z,66.92
2023-03-29T18:02:34.668Z,67.33
2023-03-29T18:07:35.368Z,67.02
2023-03-29T18:12:36.090Z,67.77
2023-03-29T18:17:36.836Z,67.97
2023-03-29T18:22:37.500Z,68.28
2023-03-29T18:27:38.223Z,68.28
2023-03-29T18:32:38.978Z,68.49
2023-03-29T18:37:39.713Z,68.69
2023-03-29T18:42:40.437Z,68.69
2023-03-29T18:47:41.194Z,68.79
2023-03-29T18:52:41.864Z,68.90
2023-03-29T18:57:42.587Z,69.20
2023-03-29T19:02:43.353Z,69.00
2023-03-29T19:07:44.060Z,69.31
2023-03-29T19:12:44.768Z,69.71
2023-03-29T19:17:45.512Z,69.51
2023-03-29T19:22:46.207Z,69.71
2023-03-29T19:27:46.943Z,69.71
2023-03-29T19:32:47.652Z,69.92
2023-03-29T19:37:48.330Z,70.23
2023-03-29T19:42:49.052Z,70.12
2023-03-29T19:47:54.333Z,70.33
2023-03-29T19:52:51.336Z,70.64
2023-03-29T19:57:51.037Z,71.18
2023-03-29T20:02:51.821Z,71.28
2023-03-29T20:07:52.517Z,71.08
2023-03-29T20:12:53.202Z,71.28
2023-03-29T20:17:54.855Z,71.28
2023-03-29T20:22:54.542Z,71.49
2023-03-29T20:27:55.220Z,71.49
2023-03-29T20:32:55.932Z,71.59
2023-03-29T20:37:57.105Z,71.49
2023-03-29T20:42:57.283Z,71.90
2023-03-29T20:47:58.128Z,71.69
2023-03-29T20:53:05.876Z,71.69
2023-03-29T20:57:59.534Z,72.00
2023-03-29T21:03:00.515Z,72.11
2023-03-29T21:08:00.759Z,72.11
2023-03-29T21:13:01.493Z,72.00
2023-03-29T21:18:02.222Z,72.41
2023-03-29T21:23:02.942Z,73.03
2023-03-29T21:28:03.671Z,73.44
2023-03-29T21:33:04.379Z,73.74
2023-03-29T21:38:05.080Z,74.05
2023-03-29T21:43:05.811Z,74.15
2023-03-29T21:48:06.539Z,74.46
2023-03-29T21:53:07.210Z,74.56
2023-03-29T21:58:07.916Z,74.70
2023-03-29T22:03:08.664Z,74.80
2023-03-29T22:08:09.325Z,75.62
2023-03-29T22:13:10.022Z,75.73
2023-03-29T22:18:10.827Z,75.82
2023-03-29T22:23:11.492Z,75.82
2023-03-29T22:28:12.220Z,75.73
2023-03-29T22:33:12.953Z,75.38
2023-03-29T22:38:13.622Z,75.79
2023-03-29T22:43:14.341Z,75.89
2023-03-29T22:48:15.058Z,75.93
2023-03-29T22:53:15.757Z,76.24
2023-03-29T22:58:16.462Z,76.44
2023-03-29T23:03:17.155Z,76.85
2023-03-29T23:08:17.877Z,76.85
2023-03-29T23:13:18.564Z,77.16
2023-03-29T23:18:19.270Z,77.77
2023-03-29T23:23:19.997Z,78.19
2023-03-29T23:28:20.692Z,79.11
2023-03-29T23:33:21.388Z,79.72
2023-03-29T23:38:22.093Z,80.47
2023-03-29T23:43:22.821Z,80.68
2023-03-29T23:48:23.532Z,81.20
2023-03-29T23:53:24.235Z,81.40
2023-03-29T23:58:24.954Z,82.12
